createdAt,value
2018-03-22T00:01:15.207Z,19.35
2018-03-22T00:03:41.294Z,21.37
2018-03-22T00:06:07.382Z,31.33
2018-03-22T00:08:33.383Z,23.05
2018-03-22T00:10:59.433Z,19.10
2018-03-22T00:13:25.495Z,20.98
2018-03-22T00:15:51.558Z,24.15
2018-03-22T00:18:17.713Z,18.37
2018-03-22T00:20:43.911Z,15.48
2018-03-22T00:23:10.570Z,26.40
2018-03-22T00:25:37.263Z,19.42
2018-03-22T00:28:03.302Z,21.37
2018-03-22T00:30:29.301Z,19.17
2018-03-22T00:32:55.318Z,17.37
2018-03-22T00:35:21.628Z,19.27
2018-03-22T00:37:47.856Z,17.58
2018-03-22T00:40:13.901Z,28.00
2018-03-22T00:42:39.958Z,22.08
2018-03-22T00:45:06.017Z,22.52
2018-03-22T00:47:32.109Z,25.15
2018-03-22T00:49:58.113Z,26.15
2018-03-22T00:52:24.171Z,18.12
2018-03-22T00:54:50.549Z,25.45
2018-03-22T00:57:16.660Z,17.73
2018-03-22T00:59:42.725Z,24.87
2018-03-22T01:02:08.742Z,21.02
2018-03-22T01:04:34.761Z,23.35
2018-03-22T01:07:00.825Z,24.05
2018-03-22T01:09:26.874Z,25.08
2018-03-22T01:11:52.939Z,22.35
2018-03-22T01:14:18.970Z,16.75
2018-03-22T01:16:45.093Z,22.00
2018-03-22T01:19:11.142Z,22.55
2018-03-22T01:21:37.178Z,22.50
2018-03-22T01:24:03.266Z,18.25
2018-03-22T01:26:29.283Z,22.20
2018-03-22T01:28:55.311Z,22.42
2018-03-22T01:31:21.322Z,16.35
2018-03-22T01:33:47.334Z,24.85
2018-03-22T01:36:13.394Z,20.52
2018-03-22T01:38:39.438Z,20.70
2018-03-22T01:41:05.439Z,24.45
2018-03-22T01:43:31.434Z,19.83
2018-03-22T01:45:57.489Z,23.75
2018-03-22T01:48:23.517Z,23.25
2018-03-22T01:50:49.574Z,14.02
2018-03-22T01:53:15.565Z,15.10
2018-03-22T01:55:41.610Z,18.98
2018-03-22T01:58:07.678Z,13.82
2018-03-22T02:00:33.740Z,17.33
2018-03-22T02:02:59.785Z,18.08
2018-03-22T02:05:25.802Z,16.35
2018-03-22T02:07:51.866Z,12.60
2018-03-22T02:10:17.874Z,18.42
2018-03-22T02:12:43.879Z,20.25
2018-03-22T02:15:10.065Z,13.88
2018-03-22T02:17:36.201Z,18.05
2018-03-22T02:20:02.222Z,11.85
2018-03-22T02:22:28.251Z,19.35
2018-03-22T02:24:54.357Z,19.50
2018-03-22T02:27:20.429Z,20.08
2018-03-22T02:29:46.570Z,18.80
2018-03-22T02:32:12.622Z,20.67
2018-03-22T02:34:38.702Z,22.10
2018-03-22T02:37:05.039Z,26.77
2018-03-22T02:39:31.057Z,26.70
2018-03-22T02:41:57.076Z,28.45
2018-03-22T02:44:23.105Z,30.33
2018-03-22T02:46:49.141Z,29.73
2018-03-22T02:49:15.155Z,21.65
2018-03-22T02:51:41.219Z,33.92
2018-03-22T02:54:07.239Z,24.02
2018-03-22T02:56:33.416Z,16.50
2018-03-22T02:58:59.561Z,26.25
2018-03-22T03:01:25.633Z,22.70
2018-03-22T03:03:51.634Z,34.17
2018-03-22T03:06:17.688Z,29.98
2018-03-22T03:08:43.705Z,28.90
2018-03-22T03:11:09.715Z,27.95
2018-03-22T03:13:35.757Z,23.23
2018-03-22T03:16:01.803Z,28.80
2018-03-22T03:18:27.931Z,26.55
2018-03-22T03:20:54.251Z,24.75
2018-03-22T03:23:20.402Z,21.42
2018-03-22T03:25:46.483Z,36.17
2018-03-22T03:28:12.550Z,28.80
2018-03-22T03:30:38.706Z,27.05
2018-03-22T03:33:05.349Z,23.55
2018-03-22T03:35:31.372Z,27.58
2018-03-22T03:37:57.423Z,29.40
2018-03-22T03:40:23.427Z,30.90
2018-03-22T03:42:49.490Z,36.60
2018-03-22T03:45:15.477Z,34.17
2018-03-22T03:47:41.513Z,24.50
2018-03-22T03:50:07.516Z,36.90
2018-03-22T03:52:33.480Z,27.10
2018-03-22T03:54:59.446Z,32.25
2018-03-22T03:57:32.584Z,35.73
2018-03-22T03:59:58.736Z,32.53
2018-03-22T04:02:24.798Z,31.15
2018-03-22T04:04:50.786Z,30.45
2018-03-22T04:07:16.904Z,31.80
2018-03-22T04:09:42.922Z,23.17
2018-03-22T04:12:09.006Z,30.23
2018-03-22T04:14:34.983Z,32.00
2018-03-22T04:17:01.034Z,31.58
2018-03-22T04:19:27.023Z,38.72
2018-03-22T04:21:53.223Z,30.15
2018-03-22T04:24:19.250Z,37.03
2018-03-22T04:26:45.268Z,28.58
2018-03-22T04:29:11.304Z,36.05
2018-03-22T04:31:37.350Z,37.25
2018-03-22T04:34:03.418Z,40.00
2018-03-22T04:36:29.439Z,44.00
2018-03-22T04:38:55.538Z,49.53
2018-03-22T04:41:21.550Z,43.85
2018-03-22T04:43:47.571Z,33.13
2018-03-22T04:46:13.900Z,43.63
2018-03-22T04:48:39.957Z,48.92
2018-03-22T04:51:06.062Z,43.75
2018-03-22T04:53:32.062Z,34.20
2018-03-22T04:55:58.562Z,44.33
2018-03-22T04:58:24.758Z,35.92
2018-03-22T05:00:50.757Z,39.75
2018-03-22T05:03:17.150Z,33.42
2018-03-22T05:05:43.147Z,24.63
2018-03-22T05:08:09.457Z,36.33
2018-03-22T05:10:35.489Z,41.40
2018-03-22T05:13:01.639Z,28.27
2018-03-22T05:15:27.650Z,45.47
2018-03-22T05:17:53.691Z,40.88
2018-03-22T05:20:19.719Z,40.12
2018-03-22T05:22:45.730Z,37.13
2018-03-22T05:25:11.777Z,37.80
2018-03-22T05:27:37.850Z,30.30
2018-03-22T05:30:03.866Z,43.13
2018-03-22T05:32:29.882Z,30.77
2018-03-22T05:34:55.928Z,33.20
2018-03-22T05:37:21.976Z,45.63
2018-03-22T05:39:48.200Z,37.50
2018-03-22T05:42:15.099Z,40.10
2018-03-22T05:44:41.114Z,32.28
2018-03-22T05:47:07.138Z,39.85
2018-03-22T05:49:33.230Z,43.78
2018-03-22T05:51:59.220Z,39.50
2018-03-22T05:54:25.249Z,43.13
2018-03-22T05:56:51.235Z,48.75
2018-03-22T05:59:17.244Z,36.90
2018-03-22T06:01:43.278Z,43.63
2018-03-22T06:04:09.663Z,41.92
2018-03-22T06:06:35.666Z,51.95
2018-03-22T06:09:01.726Z,48.33
2018-03-22T06:11:27.767Z,44.72
2018-03-22T06:13:53.785Z,50.85
2018-03-22T06:16:19.774Z,36.85
2018-03-22T06:18:45.890Z,59.05
2018-03-22T06:21:11.964Z,57.72
2018-03-22T06:23:38.594Z,56.63
2018-03-22T06:26:04.754Z,58.53
2018-03-22T06:28:30.793Z,51.67
2018-03-22T06:30:56.841Z,59.65
2018-03-22T06:33:22.891Z,42.13
2018-03-22T06:35:48.889Z,58.70
2018-03-22T06:38:14.892Z,59.65
2018-03-22T06:40:41.186Z,40.33
2018-03-22T06:43:07.182Z,58.33
2018-03-22T06:45:33.181Z,51.65
2018-03-22T06:47:59.175Z,53.78
2018-03-22T06:50:25.173Z,52.53
2018-03-22T06:52:51.250Z,49.85
2018-03-22T06:55:17.257Z,61.55
2018-03-22T06:57:43.244Z,64.28
2018-03-22T07:00:09.246Z,62.03
2018-03-22T07:02:35.249Z,62.13
2018-03-22T07:05:01.238Z,75.07
2018-03-22T07:07:27.243Z,65.18
2018-03-22T07:09:53.237Z,62.13
2018-03-22T07:12:19.233Z,67.78
2018-03-22T07:14:45.559Z,75.55
2018-03-22T07:17:11.585Z,81.35
2018-03-22T07:19:37.586Z,87.75
2018-03-22T07:22:03.600Z,64.15
2018-03-22T07:24:29.603Z,84.55
2018-03-22T07:26:55.626Z,80.57
2018-03-22T07:29:21.658Z,72.85
2018-03-22T07:31:47.700Z,77.32
2018-03-22T07:34:13.688Z,66.93
2018-03-22T07:36:39.695Z,78.10
2018-03-22T07:39:05.749Z,83.78
2018-03-22T07:41:31.750Z,67.93
2018-03-22T07:44:03.803Z,91.75
2018-03-22T07:46:29.811Z,95.10
2018-03-22T07:48:55.898Z,74.10
2018-03-22T07:51:21.948Z,98.53
2018-03-22T07:53:47.958Z,94.18
2018-03-22T07:56:14.349Z,90.05
2018-03-22T07:58:40.454Z,75.45
2018-03-22T08:01:06.499Z,89.18
2018-03-22T08:03:32.900Z,75.43
2018-03-22T08:05:58.954Z,89.85
2018-03-22T08:08:24.974Z,92.65
2018-03-22T08:10:50.971Z,89.25
2018-03-22T08:13:17.076Z,66.15
2018-03-22T08:15:43.109Z,90.07
2018-03-22T08:18:09.166Z,62.22
2018-03-22T08:20:35.205Z,88.93
2018-03-22T08:23:01.142Z,57.60
2018-03-22T08:25:27.224Z,73.25
2018-03-22T08:27:53.218Z,60.88
2018-03-22T08:30:19.233Z,92.47
2018-03-22T08:32:45.243Z,55.03
2018-03-22T08:35:11.250Z,77.05
2018-03-22T08:37:37.246Z,74.03
2018-03-22T08:40:03.249Z,63.50
2018-03-22T08:42:29.242Z,70.37
2018-03-22T08:44:55.234Z,83.70
2018-03-22T08:47:21.290Z,67.12
2018-03-22T08:49:47.343Z,64.65
2018-03-22T08:52:13.359Z,65.47
2018-03-22T08:54:39.370Z,65.82
2018-03-22T08:57:05.383Z,78.93
2018-03-22T08:59:31.388Z,65.35
2018-03-22T09:01:57.392Z,65.28
2018-03-22T09:04:23.404Z,90.62
2018-03-22T09:06:49.538Z,67.50
2018-03-22T09:09:15.576Z,64.90
2018-03-22T09:11:41.585Z,83.70
2018-03-22T09:14:07.629Z,64.03
2018-03-22T09:16:33.700Z,70.45
2018-03-22T09:18:59.827Z,93.47
2018-03-22T09:21:25.827Z,72.68
2018-03-22T09:23:51.858Z,74.60
2018-03-22T09:26:17.930Z,104.32
2018-03-22T09:28:44.934Z,85.18
2018-03-22T09:31:10.956Z,83.87
2018-03-22T09:33:37.372Z,90.35
2018-03-22T09:36:03.411Z,70.35
2018-03-22T09:38:29.426Z,73.10
2018-03-22T09:40:55.469Z,69.53
2018-03-22T09:43:21.492Z,83.12
2018-03-22T09:45:47.498Z,66.50
2018-03-22T09:48:13.554Z,75.00
2018-03-22T09:50:39.527Z,73.78
2018-03-22T09:53:05.707Z,64.40
2018-03-22T09:55:31.712Z,73.85
2018-03-22T09:57:57.738Z,94.97
2018-03-22T10:00:23.808Z,77.00
2018-03-22T10:02:49.907Z,73.07
2018-03-22T10:05:15.923Z,72.22
2018-03-22T10:07:41.970Z,78.70
2018-03-22T10:10:08.032Z,72.40
2018-03-22T10:12:34.619Z,69.70
2018-03-22T10:15:00.712Z,58.53
2018-03-22T10:17:26.793Z,59.53
2018-03-22T10:19:52.840Z,54.70
2018-03-22T10:22:19.014Z,54.83
2018-03-22T10:24:45.014Z,70.45
2018-03-22T10:27:11.131Z,55.80
2018-03-22T10:29:37.144Z,82.90
2018-03-22T10:32:03.203Z,58.03
2018-03-22T10:34:29.198Z,54.17
2018-03-22T10:36:55.318Z,52.62
2018-03-22T10:39:21.279Z,48.10
2018-03-22T10:41:47.293Z,64.43
2018-03-22T10:44:13.364Z,51.22
2018-03-22T10:46:39.412Z,59.70
2018-03-22T10:49:06.034Z,66.97
2018-03-22T10:51:32.190Z,61.17
2018-03-22T10:53:58.240Z,45.92
2018-03-22T10:56:24.250Z,58.15
2018-03-22T10:58:50.339Z,50.45
2018-03-22T11:01:22.631Z,45.47
2018-03-22T11:03:53.185Z,46.95
2018-03-22T11:06:19.236Z,41.37
2018-03-22T11:08:45.271Z,46.53
2018-03-22T11:11:11.331Z,41.95
2018-03-22T11:13:37.343Z,44.60
2018-03-22T11:16:03.366Z,47.95
2018-03-22T11:18:29.405Z,44.78
2018-03-22T11:20:55.394Z,37.07
2018-03-22T11:23:21.422Z,41.08
2018-03-22T11:25:47.444Z,38.70
2018-03-22T11:28:13.440Z,39.75
2018-03-22T11:30:39.405Z,40.97
2018-03-22T11:33:05.394Z,35.17
2018-03-22T11:35:31.416Z,54.03
2018-03-22T11:37:57.474Z,42.17
2018-03-22T11:40:23.482Z,43.30
2018-03-22T11:42:49.506Z,52.90
2018-03-22T11:45:15.559Z,41.67
2018-03-22T11:47:41.616Z,39.72
2018-03-22T11:50:07.659Z,40.75
2018-03-22T11:52:33.696Z,36.40
2018-03-22T11:54:59.723Z,32.10
2018-03-22T11:57:25.713Z,34.10
2018-03-22T11:59:51.779Z,39.45
2018-03-22T12:02:17.802Z,34.30
2018-03-22T12:04:43.980Z,39.03
2018-03-22T12:07:10.011Z,32.08
2018-03-22T12:09:36.037Z,41.60
2018-03-22T12:12:02.105Z,42.00
2018-03-22T12:14:28.174Z,37.42
2018-03-22T12:16:54.189Z,33.05
2018-03-22T12:19:20.193Z,32.65
2018-03-22T12:21:46.869Z,32.25
2018-03-22T12:24:12.879Z,34.58
2018-03-22T12:26:38.983Z,29.10
2018-03-22T12:29:05.015Z,29.37
2018-03-22T12:31:31.031Z,28.98
2018-03-22T12:33:57.062Z,26.75
2018-03-22T12:36:23.153Z,23.85
2018-03-22T12:38:49.195Z,22.42
2018-03-22T12:41:15.193Z,27.87
2018-03-22T12:43:41.309Z,24.30
2018-03-22T12:46:07.331Z,27.55
2018-03-22T12:48:33.395Z,26.20
2018-03-22T12:50:59.439Z,23.20
2018-03-22T12:53:25.462Z,19.70
2018-03-22T12:55:51.503Z,23.10
2018-03-22T12:58:17.509Z,18.48
2018-03-22T13:00:43.525Z,21.75
2018-03-22T13:03:09.530Z,31.17
2018-03-22T13:05:35.554Z,23.87
2018-03-22T13:08:01.697Z,22.60
2018-03-22T13:10:28.310Z,28.85
2018-03-22T13:12:54.397Z,24.02
2018-03-22T13:15:20.434Z,27.17
2018-03-22T13:17:46.470Z,26.33
2018-03-22T13:20:12.574Z,25.58
2018-03-22T13:22:38.702Z,22.25
2018-03-22T13:25:04.748Z,26.17
2018-03-22T13:27:30.761Z,23.58
2018-03-22T13:29:56.947Z,28.05
2018-03-22T13:32:22.953Z,25.02
2018-03-22T13:34:48.972Z,32.05
2018-03-22T13:37:14.995Z,29.92
2018-03-22T13:39:41.100Z,28.92
2018-03-22T13:42:07.128Z,30.45
2018-03-22T13:44:33.202Z,24.90
2018-03-22T13:46:59.211Z,31.60
2018-03-22T13:49:25.211Z,33.53
2018-03-22T13:51:51.219Z,33.90
2018-03-22T13:54:17.273Z,32.08
2018-03-22T13:56:43.310Z,27.50
2018-03-22T13:59:09.372Z,28.30
2018-03-22T14:01:35.416Z,30.33
2018-03-22T14:04:01.442Z,28.15
2018-03-22T14:06:27.473Z,32.53
2018-03-22T14:08:53.516Z,34.55
2018-03-22T14:11:19.584Z,25.45
2018-03-22T14:13:45.615Z,29.42
2018-03-22T14:16:11.622Z,29.77
2018-03-22T14:18:37.626Z,26.60
2018-03-22T14:21:03.690Z,28.05
2018-03-22T14:23:29.731Z,27.60
2018-03-22T14:25:55.729Z,30.90
2018-03-22T14:28:21.777Z,30.62
2018-03-22T14:30:47.912Z,33.72
2018-03-22T14:33:13.965Z,29.75
2018-03-22T14:35:39.963Z,38.80
2018-03-22T14:38:06.124Z,36.22
2018-03-22T14:40:32.685Z,39.85
2018-03-22T14:42:58.817Z,31.77
2018-03-22T14:45:24.918Z,32.55
2018-03-22T14:47:50.953Z,35.20
2018-03-22T14:50:17.015Z,30.40
2018-03-22T14:52:43.121Z,24.20
2018-03-22T14:55:09.129Z,25.92
2018-03-22T14:57:35.122Z,27.67
2018-03-22T15:00:01.090Z,22.55
2018-03-22T15:02:27.142Z,25.08
2018-03-22T15:04:53.150Z,24.80
2018-03-22T15:07:19.199Z,25.62
2018-03-22T15:09:45.325Z,22.62
2018-03-22T15:12:11.391Z,29.60
2018-03-22T15:14:37.409Z,25.42
2018-03-22T15:17:03.435Z,28.45
2018-03-22T15:19:29.451Z,23.83
2018-03-22T15:21:55.661Z,24.70
2018-03-22T15:24:21.699Z,24.83
2018-03-22T15:26:47.744Z,31.62
2018-03-22T15:29:13.802Z,28.95
2018-03-22T15:31:39.806Z,29.00
2018-03-22T15:34:05.839Z,25.70
2018-03-22T15:36:31.910Z,26.90
2018-03-22T15:38:58.030Z,30.65
2018-03-22T15:41:24.086Z,24.20
2018-03-22T15:43:50.872Z,30.35
2018-03-22T15:46:16.926Z,27.08
2018-03-22T15:48:43.075Z,28.48
2018-03-22T15:51:09.094Z,23.70
2018-03-22T15:53:35.200Z,21.95
2018-03-22T15:56:01.223Z,29.80
2018-03-22T15:58:27.309Z,22.85
2018-03-22T16:00:53.347Z,25.75
2018-03-22T16:03:19.348Z,26.15
2018-03-22T16:05:45.384Z,22.90
2018-03-22T16:08:11.419Z,24.77
2018-03-22T16:10:37.441Z,19.77
2018-03-22T16:13:03.447Z,20.42
2018-03-22T16:15:29.532Z,22.58
2018-03-22T16:17:55.575Z,19.83
2018-03-22T16:20:21.597Z,28.58
2018-03-22T16:22:47.680Z,19.35
2018-03-22T16:25:13.739Z,20.40
2018-03-22T16:27:39.751Z,21.12
2018-03-22T16:30:05.797Z,25.10
2018-03-22T16:32:32.117Z,20.80
2018-03-22T16:34:58.278Z,24.98
2018-03-22T16:37:24.351Z,22.42
2018-03-22T16:39:50.391Z,21.70
2018-03-22T16:42:17.010Z,25.30
2018-03-22T16:44:43.074Z,19.67
2018-03-22T16:47:09.131Z,16.87
2018-03-22T16:49:35.978Z,20.90
2018-03-22T16:52:02.399Z,18.98
2018-03-22T16:54:28.391Z,18.37
2018-03-22T16:56:54.391Z,24.23
2018-03-22T16:59:20.627Z,19.42
2018-03-22T17:01:47.188Z,22.62
2018-03-22T17:04:13.213Z,20.90
2018-03-22T17:06:39.326Z,23.58
2018-03-22T17:09:05.356Z,18.00
2018-03-22T17:11:31.346Z,24.63
2018-03-22T17:13:57.353Z,21.77
2018-03-22T17:16:23.372Z,20.73
2018-03-22T17:18:49.372Z,25.45
2018-03-22T17:21:15.406Z,20.25
2018-03-22T17:23:41.486Z,20.70
2018-03-22T17:26:07.494Z,21.70
2018-03-22T17:28:33.546Z,20.70
2018-03-22T17:30:59.569Z,22.13
2018-03-22T17:33:25.643Z,21.77
2018-03-22T17:35:51.825Z,23.95
2018-03-22T17:38:17.984Z,19.35
2018-03-22T17:40:43.991Z,24.83
2018-03-22T17:43:10.046Z,20.30
2018-03-22T17:45:36.117Z,21.98
2018-03-22T17:48:02.218Z,21.90
2018-03-22T17:50:28.233Z,27.58
2018-03-22T17:52:54.262Z,27.02
2018-03-22T17:55:20.336Z,23.58
2018-03-22T17:57:46.446Z,30.48
2018-03-22T18:00:12.518Z,28.38
2018-03-22T18:02:38.590Z,29.37
2018-03-22T18:05:05.273Z,28.05
2018-03-22T18:07:31.302Z,22.20
2018-03-22T18:09:57.370Z,24.83
2018-03-22T18:12:23.445Z,22.17
2018-03-22T18:14:49.467Z,30.65
2018-03-22T18:17:15.518Z,23.25
2018-03-22T18:19:41.529Z,27.85
2018-03-22T18:22:07.590Z,22.92
2018-03-22T18:24:33.582Z,29.20
2018-03-22T18:26:59.602Z,24.83
2018-03-22T18:29:25.614Z,32.17
2018-03-22T18:31:51.628Z,27.60
2018-03-22T18:34:17.667Z,27.05
2018-03-22T18:36:43.718Z,31.98
2018-03-22T18:39:09.805Z,31.87
2018-03-22T18:41:35.829Z,30.65
2018-03-22T18:44:01.846Z,29.33
2018-03-22T18:46:27.850Z,24.63
2018-03-22T18:48:53.872Z,29.02
2018-03-22T18:51:20.018Z,27.42
2018-03-22T18:53:46.036Z,28.35
2018-03-22T18:56:12.038Z,29.77
2018-03-22T18:58:38.098Z,29.92
2018-03-22T19:01:04.223Z,26.33
2018-03-22T19:03:30.268Z,27.00
2018-03-22T19:05:56.369Z,28.80
2018-03-22T19:08:22.422Z,30.27
2018-03-22T19:10:48.540Z,29.02
2018-03-22T19:13:15.397Z,30.60
2018-03-22T19:15:41.462Z,30.55
2018-03-22T19:18:07.545Z,27.48
2018-03-22T19:20:33.549Z,25.88
2018-03-22T19:22:59.578Z,32.15
2018-03-22T19:25:25.596Z,27.02
2018-03-22T19:27:51.672Z,32.47
2018-03-22T19:30:17.710Z,37.70
2018-03-22T19:32:43.719Z,37.38
2018-03-22T19:35:09.759Z,37.08
2018-03-22T19:37:35.784Z,46.08
2018-03-22T19:40:01.804Z,34.28
2018-03-22T19:42:27.861Z,30.85
2018-03-22T19:44:53.868Z,37.70
2018-03-22T19:47:19.976Z,33.75
2018-03-22T19:49:45.978Z,36.03
2018-03-22T19:52:12.107Z,30.58
2018-03-22T19:54:38.158Z,40.55
2018-03-22T19:57:04.344Z,35.45
2018-03-22T19:59:30.463Z,41.42
2018-03-22T20:01:56.611Z,33.45
2018-03-22T20:04:22.664Z,48.87
2018-03-22T20:06:48.846Z,42.22
2018-03-22T20:09:14.996Z,57.22
2018-03-22T20:11:41.078Z,53.70
2018-03-22T20:14:07.286Z,42.45
2018-03-22T20:16:33.335Z,55.22
2018-03-22T20:18:59.340Z,54.75
2018-03-22T20:21:25.345Z,58.87
2018-03-22T20:23:51.417Z,48.25
2018-03-22T20:26:17.503Z,59.47
2018-03-22T20:28:44.174Z,54.38
2018-03-22T20:31:10.359Z,44.78
2018-03-22T20:33:36.387Z,62.60
2018-03-22T20:36:02.528Z,65.53
2018-03-22T20:38:28.652Z,68.60
2018-03-22T20:40:54.739Z,66.32
2018-03-22T20:43:20.856Z,73.05
2018-03-22T20:45:46.938Z,75.75
2018-03-22T20:48:12.962Z,71.97
2018-03-22T20:50:39.013Z,70.10
2018-03-22T20:53:05.037Z,74.62
2018-03-22T20:55:31.014Z,70.20
2018-03-22T20:57:57.162Z,75.40
2018-03-22T21:00:23.278Z,54.63
2018-03-22T21:02:49.337Z,71.75
2018-03-22T21:05:15.368Z,64.37
2018-03-22T21:07:41.451Z,55.92
2018-03-22T21:10:07.474Z,84.00
2018-03-22T21:12:33.534Z,81.95
2018-03-22T21:14:59.822Z,77.10
2018-03-22T21:17:25.877Z,62.10
2018-03-22T21:19:51.963Z,81.78
2018-03-22T21:22:18.031Z,85.43
2018-03-22T21:24:44.066Z,93.55
2018-03-22T21:27:10.070Z,67.20
2018-03-22T21:29:36.818Z,97.47
2018-03-22T21:32:02.952Z,73.10
2018-03-22T21:34:29.002Z,86.70
2018-03-22T21:36:55.477Z,90.50
2018-03-22T21:39:21.597Z,86.30
2018-03-22T21:44:42.298Z,92.03
2018-03-22T21:47:20.759Z,73.72
2018-03-22T21:49:46.788Z,97.32
2018-03-22T21:52:25.762Z,67.25
2018-03-22T21:54:51.911Z,98.32
2018-03-22T21:57:17.971Z,65.87
2018-03-22T21:59:43.998Z,80.28
2018-03-22T22:02:10.120Z,73.93
2018-03-22T22:04:36.146Z,69.37
2018-03-22T22:07:02.171Z,74.05
2018-03-22T22:09:28.202Z,83.40
2018-03-22T22:11:54.229Z,87.35
2018-03-22T22:14:20.254Z,66.62
2018-03-22T22:16:46.284Z,89.20
2018-03-22T22:19:13.199Z,62.55
2018-03-22T22:21:39.211Z,68.80
2018-03-22T22:24:05.252Z,68.65
2018-03-22T22:26:31.345Z,62.15
2018-03-22T22:28:57.437Z,71.87
2018-03-22T22:31:23.442Z,75.87
2018-03-22T22:33:49.486Z,77.35
2018-03-22T22:36:15.538Z,66.45
2018-03-22T22:38:41.593Z,51.80
2018-03-22T22:41:07.616Z,66.15
2018-03-22T22:43:33.635Z,79.43
2018-03-22T22:45:59.706Z,74.70
2018-03-22T22:48:25.702Z,60.12
2018-03-22T22:50:51.817Z,46.78
2018-03-22T22:53:17.826Z,67.25
2018-03-22T22:55:43.868Z,79.82
2018-03-22T22:58:09.985Z,66.47
2018-03-22T23:00:36.018Z,62.90
2018-03-22T23:03:02.054Z,67.97
2018-03-22T23:05:28.107Z,57.80
2018-03-22T23:07:54.178Z,65.75
2018-03-22T23:10:20.182Z,65.57
2018-03-22T23:12:46.180Z,64.30
2018-03-22T23:15:12.798Z,65.80
2018-03-22T23:17:38.891Z,58.92
2018-03-22T23:20:04.905Z,62.70
2018-03-22T23:22:30.927Z,57.97
2018-03-22T23:24:56.976Z,65.97
2018-03-22T23:27:23.087Z,48.00
2018-03-22T23:29:49.241Z,67.22
2018-03-22T23:32:15.225Z,66.78
2018-03-22T23:34:41.307Z,60.45
2018-03-22T23:37:07.290Z,70.62
2018-03-22T23:39:33.335Z,61.33
2018-03-22T23:41:59.395Z,56.83
2018-03-22T23:44:25.425Z,50.60
2018-03-22T23:46:51.463Z,61.42
2018-03-22T23:49:17.496Z,75.85
2018-03-22T23:51:43.507Z,63.60
2018-03-22T23:54:09.511Z,70.07
2018-03-22T23:56:35.581Z,67.55
2018-03-22T23:59:01.587Z,62.88
